Weather at Skyraider Skyranch Airport

Public forecast

Using degrees Fahrenheit for public forecast. Weather courtesy of forecast.io.

Closest aviation weather report (METAR) to Skyraider Skyranch Airport

Report is more than 6 hours old.

Closest report is Gray Army Air Field, 14.5 nm (26.9 km) NNW.

2024/06/18 04:55 (retrieved 7 hours ago)

KGRF 180455Z 19008KT 10SM SCT060 13/07 A3007 RMK AO2A SLP186 T01250072

Closest aviation forecast (TAF) to Skyraider Skyranch Airport

Closest forecast is Gray Army Air Field, 14.5 nm (26.9 km) NNW.

2024/06/18 05:57 (retrieved 6 hours ago)

TAF TAF KGRF 180500Z 1805/1911 16007KT 9999 BKN050 QNH3007INS BECMG 1809/1811 20007KT 9999 BKN012 BKN025 OVC030 QNH3007INS TEMPO 1812/1815 9000 BR BKN009 BECMG 1817/1818 VRB06KT 9999 BKN025 BKN035 QNH3006INS BECMG 1821/1822 01007KT 9999 SKC QNH3003INS TX18/1822Z TN09/1809Z